In Rescue
 
Open Full Screen Window  High Contrast Mode
November 19, 2019 12:57 PM EST
Present Weather: Mist
Weather Information
Wind Direction
  ---
Wind Speed
  00 kt (0 mph)
Wind Gust
  00 kt (0 mph)
Altimeter
29.81 in
Visibility
4 SM
Temperature
05° C
41° F
Dewpoint
03° C
37° F
Humidity
87%
1hr Rain Fall
00.00 in.
24hr Rain Fall
00.00 in.
Sky Condition
Overcast @ 1,300 ft
MVFR

METAR KTTF 191757Z AUTO 00000KT 4SM BR OVC013 05/03 A2981 RMK AO2 6//// T00480028

FAA Disclaimer: The data displayed is for advisory purposes only and is not to be used for flight planning or operations.